createdAt,value
2022-09-18T00:00:11.072Z,57.50
2022-09-18T00:02:37.747Z,57.50
2022-09-18T00:05:05.304Z,57.30
2022-09-18T00:07:31.923Z,57.40
2022-09-18T00:09:58.513Z,57.50
2022-09-18T00:12:25.069Z,57.60
2022-09-18T00:14:51.851Z,57.70
2022-09-18T00:17:18.423Z,57.50
2022-09-18T00:19:45.001Z,57.50
2022-09-18T00:22:11.661Z,57.60
2022-09-18T00:24:38.373Z,57.60
2022-09-18T00:27:05.180Z,57.80
2022-09-18T00:29:31.755Z,57.70
2022-09-18T00:31:59.789Z,57.60
2022-09-18T00:34:26.390Z,57.60
2022-09-18T00:36:52.960Z,57.60
2022-09-18T00:39:19.560Z,57.60
2022-09-18T00:41:46.187Z,57.70
2022-09-18T00:44:35.322Z,57.80
2022-09-18T00:47:38.066Z,57.10
2022-09-18T00:50:18.346Z,57.10
2022-09-18T00:52:57.052Z,58.00
2022-09-18T00:55:37.959Z,57.90
2022-09-18T00:58:05.626Z,57.60
2022-09-18T01:00:33.038Z,57.60
2022-09-18T01:03:01.355Z,57.90
2022-09-18T01:05:47.456Z,57.80
2022-09-18T01:08:19.737Z,57.80
2022-09-18T01:11:04.275Z,57.80
2022-09-18T01:14:17.013Z,57.80
2022-09-18T01:17:12.743Z,56.80
2022-09-18T01:20:05.025Z,58.00
2022-09-18T01:22:53.172Z,57.50
2022-09-18T01:25:47.204Z,58.40
2022-09-18T01:28:35.077Z,57.50
2022-09-18T01:31:07.133Z,58.00
2022-09-18T01:33:47.630Z,58.10
2022-09-18T01:36:16.535Z,58.30
2022-09-18T01:38:52.768Z,58.30
2022-09-18T01:41:27.918Z,58.30
2022-09-18T01:44:05.490Z,58.40
2022-09-18T01:46:33.530Z,58.40
2022-09-18T01:49:04.739Z,58.10
2022-09-18T01:51:57.857Z,58.20
2022-09-18T01:54:28.713Z,58.10
2022-09-18T01:57:04.548Z,58.00
2022-09-18T01:59:39.695Z,58.10
2022-09-18T02:02:11.396Z,58.00
2022-09-18T02:04:42.098Z,57.90
2022-09-18T02:07:27.530Z,57.90
2022-09-18T02:09:54.228Z,58.10
2022-09-18T02:12:24.237Z,57.60
2022-09-18T02:14:54.797Z,58.00
2022-09-18T02:17:40.388Z,57.90
2022-09-18T02:20:13.789Z,58.20
2022-09-18T02:22:45.936Z,57.90
2022-09-18T02:25:15.937Z,58.20
2022-09-18T02:27:42.823Z,58.10
2022-09-18T02:30:10.282Z,58.00
2022-09-18T02:32:38.976Z,58.00
2022-09-18T02:35:08.836Z,58.00
2022-09-18T02:37:35.616Z,58.00
2022-09-18T02:40:07.490Z,57.90
2022-09-18T02:43:00.331Z,58.00
2022-09-18T02:45:36.982Z,58.40
2022-09-18T02:48:15.537Z,58.50
2022-09-18T02:50:45.110Z,58.30
2022-09-18T02:53:30.251Z,58.40
2022-09-18T02:56:00.432Z,58.00
2022-09-18T02:58:45.773Z,56.00
2022-09-18T03:01:14.309Z,57.80
2022-09-18T03:03:41.530Z,57.90
2022-09-18T03:06:08.524Z,58.00
2022-09-18T03:08:35.714Z,57.90
2022-09-18T03:11:02.449Z,57.90
2022-09-18T03:13:29.091Z,57.90
2022-09-18T03:15:56.194Z,57.80
2022-09-18T03:18:23.336Z,57.60
2022-09-18T03:20:50.053Z,57.50
2022-09-18T03:23:16.609Z,57.50
2022-09-18T03:25:43.167Z,57.40
2022-09-18T03:28:09.782Z,57.50
2022-09-18T03:30:36.719Z,57.60
2022-09-18T03:33:03.391Z,57.60
2022-09-18T03:35:30.195Z,57.70
2022-09-18T03:37:56.772Z,57.50
2022-09-18T03:40:23.456Z,57.70
2022-09-18T03:42:50.762Z,57.70
2022-09-18T03:45:17.832Z,57.80
2022-09-18T03:47:44.699Z,58.00
2022-09-18T03:50:11.499Z,58.00
2022-09-18T03:52:38.536Z,58.00
2022-09-18T03:55:05.479Z,57.90
2022-09-18T03:57:32.095Z,57.90
2022-09-18T03:59:58.690Z,57.90
2022-09-18T04:02:25.341Z,57.60
2022-09-18T04:04:53.776Z,57.70
2022-09-18T04:07:20.625Z,57.80
2022-09-18T04:09:47.234Z,57.80
2022-09-18T04:12:13.870Z,58.00
2022-09-18T04:14:40.484Z,57.80
2022-09-18T04:17:07.189Z,57.70
2022-09-18T04:19:33.751Z,57.90
2022-09-18T04:22:00.486Z,57.80
2022-09-18T04:24:27.419Z,58.00
2022-09-18T04:26:53.986Z,57.90
2022-09-18T04:29:20.685Z,57.80
2022-09-18T04:31:47.338Z,58.10
2022-09-18T04:34:14.004Z,57.90
2022-09-18T04:36:40.543Z,58.10
2022-09-18T04:39:07.111Z,58.10
2022-09-18T04:41:33.689Z,58.20
2022-09-18T04:44:00.235Z,58.20
2022-09-18T04:46:26.864Z,58.20
2022-09-18T04:48:54.068Z,58.30
2022-09-18T04:51:20.663Z,58.30
2022-09-18T04:53:47.212Z,58.10
2022-09-18T04:56:13.830Z,58.10
2022-09-18T04:58:40.468Z,58.20
2022-09-18T05:01:07.183Z,58.10
2022-09-18T05:03:34.055Z,58.20
2022-09-18T05:06:00.672Z,58.20
2022-09-18T05:08:29.283Z,58.10
2022-09-18T05:10:56.652Z,58.40
2022-09-18T05:13:23.930Z,58.30
2022-09-18T05:15:54.615Z,58.20
2022-09-18T05:18:21.507Z,58.60
2022-09-18T05:20:48.195Z,58.20
2022-09-18T05:23:14.824Z,58.10
2022-09-18T05:25:42.947Z,58.10
2022-09-18T05:28:10.787Z,58.20
2022-09-18T05:30:37.632Z,58.00
2022-09-18T05:33:07.207Z,58.00
2022-09-18T05:35:35.697Z,58.10
2022-09-18T05:38:02.989Z,58.00
2022-09-18T05:40:33.478Z,57.90
2022-09-18T05:43:00.993Z,58.10
2022-09-18T05:45:27.576Z,58.00
2022-09-18T05:47:54.150Z,58.00
2022-09-18T05:50:21.359Z,58.10
2022-09-18T05:52:48.347Z,58.00
2022-09-18T05:55:14.971Z,57.80
2022-09-18T05:57:41.512Z,58.10
2022-09-18T06:00:08.684Z,58.10
2022-09-18T06:02:35.698Z,58.10
2022-09-18T06:05:02.288Z,57.40
2022-09-18T06:07:28.848Z,57.50
2022-09-18T06:09:55.411Z,57.70
2022-09-18T06:12:21.976Z,57.90
2022-09-18T06:14:48.580Z,57.90
2022-09-18T06:17:15.375Z,57.90
2022-09-18T06:19:41.915Z,58.00
2022-09-18T06:22:08.554Z,58.00
2022-09-18T06:24:35.139Z,57.90
2022-09-18T06:27:01.727Z,58.00
2022-09-18T06:29:28.289Z,58.00
2022-09-18T06:31:54.946Z,58.10
2022-09-18T06:34:21.577Z,58.20
2022-09-18T06:36:48.121Z,58.10
2022-09-18T06:39:14.676Z,58.10
2022-09-18T06:41:42.753Z,57.90
2022-09-18T06:44:09.283Z,57.90
2022-09-18T06:46:35.906Z,58.00
2022-09-18T06:49:02.664Z,57.90
2022-09-18T06:51:29.328Z,57.70
2022-09-18T06:53:56.393Z,57.80
2022-09-18T06:56:23.009Z,58.00
2022-09-18T06:58:53.438Z,57.50
2022-09-18T07:01:20.108Z,57.90
2022-09-18T07:03:50.632Z,57.90
2022-09-18T07:06:17.471Z,58.40
2022-09-18T07:08:44.072Z,58.20
2022-09-18T07:11:10.616Z,57.80
2022-09-18T07:13:37.496Z,57.90
2022-09-18T07:16:04.336Z,58.10
2022-09-18T07:18:31.010Z,57.90
2022-09-18T07:21:01.338Z,58.30
2022-09-18T07:23:30.986Z,58.60
2022-09-18T07:26:00.753Z,58.30
2022-09-18T07:28:27.871Z,58.30
2022-09-18T07:30:54.896Z,58.10
2022-09-18T07:33:21.685Z,58.40
2022-09-18T07:35:48.444Z,58.10
2022-09-18T07:38:15.016Z,58.00
2022-09-18T07:40:43.135Z,57.90
2022-09-18T07:43:11.077Z,57.70
2022-09-18T07:45:37.758Z,58.10
2022-09-18T07:48:05.990Z,58.10
2022-09-18T07:50:34.207Z,58.10
2022-09-18T07:53:05.357Z,58.20
2022-09-18T07:55:34.972Z,58.20
2022-09-18T07:58:04.462Z,58.30
2022-09-18T08:00:34.788Z,58.00
2022-09-18T08:03:06.742Z,58.40
2022-09-18T08:05:33.511Z,58.80
2022-09-18T08:08:05.193Z,58.40
2022-09-18T08:10:33.125Z,58.60
2022-09-18T08:12:59.759Z,58.30
2022-09-18T08:15:26.455Z,58.10
2022-09-18T08:17:53.190Z,58.40
2022-09-18T08:20:19.824Z,57.60
2022-09-18T08:22:46.808Z,57.70
2022-09-18T08:25:13.883Z,57.60
2022-09-18T08:27:41.707Z,57.80
2022-09-18T08:30:11.305Z,57.90
2022-09-18T08:32:37.908Z,57.90
2022-09-18T08:35:04.975Z,57.70
2022-09-18T08:37:33.423Z,57.90
2022-09-18T08:40:00.467Z,58.20
2022-09-18T08:42:40.262Z,58.50
2022-09-18T08:45:37.252Z,58.70
2022-09-18T08:48:15.282Z,57.50
2022-09-18T08:50:48.253Z,58.70
2022-09-18T08:53:21.698Z,58.20
2022-09-18T08:55:50.625Z,57.50
2022-09-18T08:58:35.049Z,58.20
2022-09-18T09:01:19.059Z,58.10
2022-09-18T09:04:06.760Z,57.90
2022-09-18T09:06:46.171Z,57.60
2022-09-18T09:09:21.514Z,57.90
2022-09-18T09:12:16.605Z,57.60
2022-09-18T09:15:11.483Z,56.90
2022-09-18T09:18:17.896Z,56.90
2022-09-18T09:21:17.668Z,56.40
2022-09-18T09:24:06.288Z,56.60
2022-09-18T09:26:34.518Z,57.30
2022-09-18T09:29:15.945Z,57.10
2022-09-18T09:31:55.952Z,57.30
2022-09-18T09:34:36.704Z,57.20
2022-09-18T09:37:11.669Z,57.20
2022-09-18T09:40:32.351Z,57.30
2022-09-18T09:43:06.176Z,56.30
2022-09-18T09:45:47.104Z,57.50
2022-09-18T09:48:28.807Z,57.10
2022-09-18T09:51:22.064Z,57.60
2022-09-18T09:53:49.786Z,56.60
2022-09-18T09:56:45.187Z,57.30
2022-09-18T09:59:21.200Z,56.40
2022-09-18T10:02:01.403Z,57.30
2022-09-18T10:04:44.802Z,57.10
2022-09-18T10:07:30.781Z,56.70
2022-09-18T10:10:17.545Z,57.20
2022-09-18T10:13:16.559Z,57.00
2022-09-18T10:15:49.137Z,57.50
2022-09-18T10:18:23.154Z,57.60
2022-09-18T10:20:55.625Z,57.60
2022-09-18T10:23:33.592Z,57.50
2022-09-18T10:26:01.775Z,57.30
2022-09-18T10:28:32.030Z,57.20
2022-09-18T10:31:03.059Z,56.90
2022-09-18T10:33:37.021Z,57.10
2022-09-18T10:36:33.219Z,56.90
2022-09-18T10:39:00.771Z,56.70
2022-09-18T10:41:37.047Z,57.00
2022-09-18T10:44:21.141Z,57.00
2022-09-18T10:47:07.008Z,56.90
2022-09-18T10:50:07.028Z,56.50
2022-09-18T10:52:38.515Z,56.50
2022-09-18T10:55:05.441Z,56.50
2022-09-18T10:57:33.722Z,56.10
2022-09-18T11:00:01.341Z,56.00
2022-09-18T11:02:32.217Z,56.10
2022-09-18T11:04:58.961Z,56.20
2022-09-18T11:07:26.480Z,56.00
2022-09-18T11:09:53.129Z,56.00
2022-09-18T11:12:27.229Z,56.00
2022-09-18T11:15:07.805Z,56.10
2022-09-18T11:17:43.045Z,56.20
2022-09-18T11:20:27.992Z,56.70
2022-09-18T11:23:13.198Z,56.30
2022-09-18T11:25:41.785Z,56.20
2022-09-18T11:28:27.824Z,56.40
2022-09-18T11:31:06.054Z,55.90
2022-09-18T11:33:40.005Z,56.60
2022-09-18T11:36:10.241Z,56.30
2022-09-18T11:38:44.884Z,56.30
2022-09-18T11:41:13.553Z,56.60
2022-09-18T11:43:43.547Z,56.30
2022-09-18T11:57:02.987Z,56.50
2022-09-18T11:59:44.724Z,56.10
2022-09-18T12:02:37.378Z,56.50
2022-09-18T12:05:35.152Z,56.00
2022-09-18T12:08:11.885Z,56.10
2022-09-18T12:11:09.286Z,56.50
2022-09-18T12:13:49.017Z,56.10
2022-09-18T12:16:34.233Z,56.30
2022-09-18T12:19:24.001Z,55.50
2022-09-18T12:22:05.103Z,56.20
2022-09-18T12:24:31.793Z,56.20
2022-09-18T12:27:14.733Z,55.90
2022-09-18T12:29:50.550Z,56.10
2022-09-18T12:32:26.092Z,56.20
2022-09-18T12:35:20.843Z,56.00
2022-09-18T12:38:05.973Z,55.20
2022-09-18T12:40:51.812Z,55.60
2022-09-18T12:46:09.497Z,55.60
2022-09-18T12:48:58.776Z,56.30
2022-09-18T12:52:14.590Z,55.50
2022-09-18T12:55:05.619Z,55.20
2022-09-18T12:57:50.543Z,56.10
2022-09-18T13:00:18.480Z,55.90
2022-09-18T13:02:58.603Z,56.00
2022-09-18T13:05:45.923Z,56.10
2022-09-18T13:08:18.979Z,55.90
2022-09-18T13:10:49.072Z,56.30
2022-09-18T13:13:49.510Z,55.80
2022-09-18T13:16:33.559Z,56.00
2022-09-18T13:19:07.023Z,56.40
2022-09-18T13:21:41.759Z,56.50
2022-09-18T13:24:13.536Z,56.20
2022-09-18T13:26:42.491Z,54.70
2022-09-18T13:29:53.627Z,55.80
2022-09-18T13:32:20.396Z,55.40
2022-09-18T13:34:50.467Z,56.00
2022-09-18T13:37:19.986Z,56.50
2022-09-18T13:40:22.401Z,55.90
2022-09-18T13:42:49.081Z,56.50
2022-09-18T13:45:25.119Z,56.60
2022-09-18T13:48:03.590Z,56.90
2022-09-18T13:50:37.688Z,57.10
2022-09-18T13:53:05.122Z,56.90
2022-09-18T13:55:36.250Z,56.60
2022-09-18T13:58:30.613Z,57.10
2022-09-18T14:00:58.671Z,56.40
2022-09-18T14:03:27.816Z,56.60
2022-09-18T14:05:55.148Z,56.40
2022-09-18T14:08:22.356Z,56.70
2022-09-18T14:11:11.312Z,56.40
2022-09-18T14:13:55.428Z,57.40
2022-09-18T14:16:23.022Z,57.30
2022-09-18T14:18:49.755Z,58.20
2022-09-18T14:21:19.644Z,58.60
2022-09-18T14:23:47.259Z,59.10
2022-09-18T14:26:38.494Z,59.20
2022-09-18T14:29:10.869Z,59.10
2022-09-18T14:31:49.013Z,59.60
2022-09-18T14:34:24.308Z,59.70
2022-09-18T14:36:58.572Z,60.00
2022-09-18T14:39:29.461Z,60.10
2022-09-18T14:42:05.676Z,59.80
2022-09-18T14:44:33.851Z,60.00
2022-09-18T14:47:03.382Z,60.10
2022-09-18T14:49:42.118Z,60.30
2022-09-18T14:52:42.031Z,60.60
2022-09-18T14:55:11.688Z,60.30
2022-09-18T14:57:45.776Z,60.60
2022-09-18T15:00:33.528Z,60.70
2022-09-18T15:03:20.332Z,60.00
2022-09-18T15:05:50.927Z,60.20
2022-09-18T15:08:24.656Z,60.60
2022-09-18T15:10:56.373Z,60.90
2022-09-18T15:13:23.096Z,60.80
2022-09-18T15:16:04.103Z,60.90
2022-09-18T15:18:38.556Z,61.00
2022-09-18T15:21:05.477Z,60.80
2022-09-18T15:23:38.247Z,60.60
2022-09-18T15:26:12.827Z,61.00
2022-09-18T15:28:43.875Z,60.90
2022-09-18T15:31:12.930Z,60.90
2022-09-18T15:33:53.956Z,60.80
2022-09-18T15:36:33.620Z,60.80
2022-09-18T15:39:01.062Z,60.80
2022-09-18T15:41:30.734Z,60.60
2022-09-18T15:43:57.676Z,60.70
2022-09-18T15:46:26.246Z,60.40
2022-09-18T15:48:56.355Z,60.70
2022-09-18T15:51:25.701Z,60.80
2022-09-18T15:54:07.462Z,60.60
2022-09-18T15:56:35.255Z,60.90
2022-09-18T15:59:06.180Z,60.40
2022-09-18T16:01:36.054Z,60.80
2022-09-18T16:04:20.088Z,60.70
2022-09-18T16:07:06.733Z,60.40
2022-09-18T16:09:43.787Z,60.20
2022-09-18T16:12:41.821Z,60.70
2022-09-18T16:15:20.555Z,59.80
2022-09-18T16:17:54.246Z,60.60
2022-09-18T16:20:32.087Z,60.30
2022-09-18T16:23:16.306Z,60.50
2022-09-18T16:25:44.385Z,60.10
2022-09-18T16:28:24.103Z,60.40
2022-09-18T16:30:51.150Z,60.40
2022-09-18T16:33:19.391Z,60.30
2022-09-18T16:35:47.844Z,60.30
2022-09-18T16:38:14.495Z,60.40
2022-09-18T16:40:42.850Z,60.30
2022-09-18T16:43:10.651Z,60.30
2022-09-18T16:45:37.810Z,60.20
2022-09-18T16:48:05.488Z,60.10
2022-09-18T16:50:32.550Z,60.40
2022-09-18T16:53:01.631Z,60.20
2022-09-18T16:55:29.986Z,60.30
2022-09-18T16:57:57.378Z,60.20
2022-09-18T17:00:24.388Z,60.00
2022-09-18T17:02:52.307Z,60.10
2022-09-18T17:05:19.144Z,60.00
2022-09-18T17:07:45.889Z,59.90
2022-09-18T17:10:12.891Z,59.90
2022-09-18T17:12:40.790Z,59.90
2022-09-18T17:15:08.619Z,59.80
2022-09-18T17:17:35.515Z,59.80
2022-09-18T17:20:03.391Z,59.70
2022-09-18T17:22:31.206Z,59.70
2022-09-18T17:24:57.899Z,59.70
2022-09-18T17:27:25.815Z,59.80
2022-09-18T17:29:52.654Z,59.70
2022-09-18T17:32:19.584Z,59.90
2022-09-18T17:34:46.228Z,59.80
2022-09-18T17:37:12.940Z,59.90
2022-09-18T17:39:39.646Z,59.80
2022-09-18T17:42:06.256Z,59.70
2022-09-18T17:44:34.510Z,59.70
2022-09-18T17:47:01.503Z,59.60
2022-09-18T17:49:31.669Z,59.70
2022-09-18T17:51:59.082Z,59.70
2022-09-18T17:54:26.040Z,59.70
2022-09-18T17:56:52.607Z,59.50
2022-09-18T17:59:19.515Z,59.50
2022-09-18T18:01:48.828Z,59.60
2022-09-18T18:04:15.995Z,59.70
2022-09-18T18:06:42.839Z,59.60
2022-09-18T18:09:10.138Z,59.60
2022-09-18T18:11:37.952Z,59.60
2022-09-18T18:14:05.732Z,59.60
2022-09-18T18:16:34.411Z,59.60
2022-09-18T18:19:03.938Z,59.60
2022-09-18T18:21:32.751Z,59.60
2022-09-18T18:24:02.174Z,59.60
2022-09-18T18:26:28.736Z,59.60
2022-09-18T18:28:56.136Z,59.50
2022-09-18T18:31:25.399Z,59.50
2022-09-18T18:33:54.581Z,59.50
2022-09-18T18:36:27.641Z,59.60
2022-09-18T18:38:56.339Z,59.60
2022-09-18T18:41:25.586Z,59.50
2022-09-18T18:43:55.371Z,59.50
2022-09-18T18:46:24.328Z,59.50
2022-09-18T18:49:02.938Z,59.50
2022-09-18T18:51:32.645Z,59.50
2022-09-18T18:54:03.732Z,59.50
2022-09-18T18:56:32.396Z,59.50
2022-09-18T18:59:01.240Z,59.60
2022-09-18T19:01:29.261Z,59.40
2022-09-18T19:04:04.871Z,59.50
2022-09-18T19:06:31.523Z,59.70
2022-09-18T19:09:00.835Z,59.60
2022-09-18T19:11:29.021Z,59.70
2022-09-18T19:13:57.086Z,59.60
2022-09-18T19:16:28.730Z,59.60
2022-09-18T19:18:58.580Z,59.60
2022-09-18T19:21:27.136Z,59.60
2022-09-18T19:23:56.521Z,59.40
2022-09-18T19:26:24.964Z,59.50
2022-09-18T19:28:53.724Z,59.50
2022-09-18T19:31:21.004Z,59.50
2022-09-18T19:33:50.803Z,59.50
2022-09-18T19:36:20.648Z,59.50
2022-09-18T19:38:51.952Z,59.40
2022-09-18T19:41:41.119Z,59.50
2022-09-18T19:44:36.921Z,59.30
2022-09-18T19:47:07.121Z,59.30
2022-09-18T19:49:38.543Z,59.50
2022-09-18T19:52:19.283Z,59.60
2022-09-18T19:54:51.033Z,59.60
2022-09-18T19:57:19.220Z,59.60
2022-09-18T19:59:46.928Z,59.50
2022-09-18T20:02:15.082Z,59.50
2022-09-18T20:04:41.843Z,59.50
2022-09-18T20:07:09.560Z,59.50
2022-09-18T20:09:36.489Z,59.40
2022-09-18T20:12:04.027Z,59.40
2022-09-18T20:14:30.786Z,59.40
2022-09-18T20:16:57.527Z,59.40
2022-09-18T20:19:25.168Z,59.50
2022-09-18T20:21:52.699Z,59.50
2022-09-18T20:24:19.541Z,59.60
2022-09-18T20:26:46.110Z,59.50
2022-09-18T20:29:16.369Z,59.60
2022-09-18T20:31:44.205Z,59.80
2022-09-18T20:34:11.059Z,59.50
2022-09-18T20:36:38.104Z,59.60
2022-09-18T20:39:05.182Z,59.70
2022-09-18T20:41:32.024Z,59.70
2022-09-18T20:44:04.677Z,59.80
2022-09-18T20:46:36.335Z,59.90
2022-09-18T20:49:04.344Z,59.90
2022-09-18T20:51:34.596Z,59.90
2022-09-18T20:54:02.009Z,60.00
2022-09-18T20:56:35.971Z,59.90
2022-09-18T20:59:06.512Z,59.90
2022-09-18T21:01:40.196Z,59.50
2022-09-18T21:04:09.049Z,59.80
2022-09-18T21:06:37.202Z,59.80
2022-09-18T21:09:08.937Z,59.90
2022-09-18T21:11:41.425Z,59.90
2022-09-18T21:14:10.717Z,59.90
2022-09-18T21:16:42.858Z,59.90
2022-09-18T21:19:14.352Z,59.90
2022-09-18T21:21:41.466Z,59.90
2022-09-18T21:24:09.116Z,59.80
2022-09-18T21:26:39.689Z,59.90
2022-09-18T21:29:17.087Z,59.80
2022-09-18T21:31:46.430Z,59.80
2022-09-18T21:34:16.025Z,59.80
2022-09-18T21:36:45.663Z,59.90
2022-09-18T21:39:14.196Z,59.90
2022-09-18T21:41:45.860Z,59.80
2022-09-18T21:44:15.146Z,59.80
2022-09-18T21:46:43.139Z,59.80
2022-09-18T21:49:10.244Z,59.80
2022-09-18T21:51:41.276Z,59.80
2022-09-18T21:54:14.458Z,59.90
2022-09-18T21:56:41.544Z,59.90
2022-09-18T21:59:09.983Z,59.80
2022-09-18T22:01:38.147Z,59.90
2022-09-18T22:04:07.143Z,59.80
2022-09-18T22:06:40.682Z,59.80
2022-09-18T22:09:15.282Z,59.90
2022-09-18T22:11:42.991Z,59.90
2022-09-18T22:14:13.672Z,59.80
2022-09-18T22:16:41.030Z,59.90
2022-09-18T22:19:08.455Z,59.90
2022-09-18T22:21:37.235Z,59.90
2022-09-18T22:24:15.751Z,59.90
2022-09-18T22:26:44.837Z,60.00
2022-09-18T22:29:20.363Z,59.90
2022-09-18T22:31:47.604Z,59.90
2022-09-18T22:34:17.211Z,59.90
2022-09-18T22:36:45.754Z,59.80
2022-09-18T22:39:18.306Z,59.90
2022-09-18T22:41:45.931Z,59.80
2022-09-18T22:44:14.010Z,59.80
2022-09-18T22:46:42.583Z,59.90
2022-09-18T22:49:12.218Z,59.90
2022-09-18T22:51:40.218Z,59.90
2022-09-18T22:54:09.938Z,59.90
2022-09-18T22:56:39.188Z,59.90
2022-09-18T22:59:06.347Z,59.90
2022-09-18T23:01:47.695Z,59.90
2022-09-18T23:04:15.942Z,60.10
2022-09-18T23:06:43.502Z,59.90
2022-09-18T23:09:10.847Z,60.00
2022-09-18T23:11:37.419Z,60.00
2022-09-18T23:14:06.556Z,60.10
2022-09-18T23:16:35.341Z,60.20
2022-09-18T23:19:05.547Z,60.40
2022-09-18T23:21:34.031Z,60.60
2022-09-18T23:24:08.593Z,60.50
2022-09-18T23:26:39.122Z,60.60
2022-09-18T23:29:08.448Z,60.60
2022-09-18T23:31:38.134Z,60.50
2022-09-18T23:34:14.764Z,60.50
2022-09-18T23:36:44.625Z,60.60
2022-09-18T23:39:26.760Z,60.40
2022-09-18T23:41:53.355Z,60.50
2022-09-18T23:44:21.386Z,60.30
2022-09-18T23:46:49.032Z,60.40
2022-09-18T23:49:19.015Z,60.40
2022-09-18T23:51:46.344Z,60.30
2022-09-18T23:54:22.190Z,60.30
2022-09-18T23:56:49.084Z,60.60
2022-09-18T23:59:21.941Z,60.30
